Time;durP1;ratioP1;P1;durP2;ratioP2;P2;SDS_P1;SDS_P2;PMS_P1;PMS_P2;Temp;Humidity;BMP_temperature;BMP_pressure;BME280_temperature;BME280_humidity;BME280_pressure;Samples;Min_cycle;Max_cycle;Signal;HPM_P1;HPM_P2
2023/08/31 00:01:57;;;;;;;1.10;0.50;;;11.70;99.90;;;;;;5009504;28;20033;-77
2023/08/31 00:04:24;;;;;;;1.23;0.40;;;11.70;99.90;;;;;;5025760;28;20033;-79
2023/08/31 00:06:50;;;;;;;1.42;0.50;;;11.70;99.90;;;;;;5009171;28;20539;-79
2023/08/31 00:09:18;;;;;;;1.30;0.50;;;11.70;99.90;;;;;;4994962;28;20033;-78
2023/08/31 00:11:45;;;;;;;1.00;0.45;;;11.70;99.90;;;;;;4977029;28;20029;-80
2023/08/31 00:14:11;;;;;;;1.35;0.60;;;11.70;99.90;;;;;;4994015;28;20120;-78
2023/08/31 00:16:38;;;;;;;1.40;0.50;;;11.60;99.90;;;;;;4991872;28;20044;-78
2023/08/31 00:19:04;;;;;;;1.10;0.50;;;11.60;99.90;;;;;;5009518;28;20372;-80
2023/08/31 00:21:30;;;;;;;0.70;0.40;;;11.70;99.90;;;;;;4977401;28;20527;-79
2023/08/31 00:23:57;;;;;;;1.30;0.52;;;11.60;99.90;;;;;;5009986;28;20583;-79
2023/08/31 00:26:24;;;;;;;1.08;0.40;;;11.60;99.90;;;;;;5006657;28;20037;-80
2023/08/31 00:28:52;;;;;;;1.00;0.52;;;11.60;99.90;;;;;;4992490;28;20057;-79
2023/08/31 00:31:18;;;;;;;1.80;0.60;;;11.60;99.90;;;;;;5013346;28;20030;-79
2023/08/31 00:33:45;;;;;;;1.00;0.60;;;11.60;99.90;;;;;;5013764;28;20033;-78
2023/08/31 00:36:12;;;;;;;1.23;0.70;;;11.50;99.90;;;;;;4999043;28;20046;-79
2023/08/31 00:38:39;;;;;;;1.70;0.50;;;11.50;99.90;;;;;;5011712;28;20420;-78
2023/08/31 00:41:09;;;;;;;1.88;0.50;;;11.50;99.90;;;;;;5030386;28;20029;-77
2023/08/31 00:43:35;;;;;;;1.23;0.50;;;11.50;99.90;;;;;;4998678;28;20400;-79
2023/08/31 00:46:02;;;;;;;1.83;0.60;;;11.50;99.90;;;;;;4979658;28;20401;-79
2023/08/31 00:48:28;;;;;;;1.15;0.45;;;11.50;99.90;;;;;;5013378;28;20022;-77
2023/08/31 00:50:55;;;;;;;1.65;0.50;;;11.50;99.90;;;;;;4997168;28;20037;-78
2023/08/31 00:53:23;;;;;;;2.28;0.52;;;11.40;99.90;;;;;;4982061;28;20074;-78
2023/08/31 00:55:49;;;;;;;2.13;0.60;;;11.50;99.90;;;;;;4979394;28;20053;-78
2023/08/31 00:58:16;;;;;;;2.58;0.70;;;11.40;99.90;;;;;;4996484;28;20053;-77
2023/08/31 01:01:07;;;;;;;1.95;0.60;;;11.40;99.90;;;;;;4996626;28;20050;-78
2023/08/31 01:03:47;;;;;;;4.13;1.00;;;11.40;99.90;;;;;;4997148;28;20097;-79
2023/08/31 01:06:37;;;;;;;1.85;0.63;;;11.40;99.90;;;;;;5007576;28;20045;-78
2023/08/31 01:09:13;;;;;;;1.42;0.70;;;11.40;99.90;;;;;;5011567;28;20041;-78
2023/08/31 01:12:04;;;;;;;1.95;0.55;;;11.40;99.90;;;;;;4979627;28;20046;-77
2023/08/31 01:14:44;;;;;;;1.65;0.80;;;11.40;99.90;;;;;;5012154;28;20042;-77
2023/08/31 01:17:14;;;;;;;2.28;0.80;;;11.40;99.90;;;;;;5012097;28;20074;-79
2023/08/31 01:19:55;;;;;;;3.05;1.08;;;11.50;99.90;;;;;;5012945;28;20029;-79
2023/08/31 01:22:33;;;;;;;2.78;0.95;;;11.60;99.90;;;;;;4980366;28;20045;-79
2023/08/31 01:25:04;;;;;;;1.88;1.35;;;11.60;99.90;;;;;;4998006;28;20042;-80
2023/08/31 01:27:33;;;;;;;2.17;1.45;;;11.70;99.90;;;;;;4996564;28;20597;-79
2023/08/31 01:30:00;;;;;;;2.83;1.50;;;11.70;99.90;;;;;;4996772;28;20370;-77
2023/08/31 01:32:27;;;;;;;2.80;1.90;;;11.70;99.90;;;;;;5011970;28;20046;-78
2023/08/31 01:34:54;;;;;;;4.90;3.30;;;11.70;99.90;;;;;;4995916;28;20041;-78
2023/08/31 01:37:29;;;;;;;4.32;3.15;;;11.70;99.90;;;;;;4997508;28;20066;-78
2023/08/31 01:40:24;;;;;;;6.30;4.45;;;11.80;99.90;;;;;;5012049;28;20029;-79
2023/08/31 01:42:52;;;;;;;5.18;3.40;;;11.80;99.90;;;;;;5010942;28;20492;-79
2023/08/31 01:45:24;;;;;;;5.75;3.90;;;11.90;99.90;;;;;;5010386;28;21462;-78
2023/08/31 01:47:50;;;;;;;5.60;4.50;;;11.90;99.90;;;;;;5012245;28;20042;-78
2023/08/31 01:50:18;;;;;;;4.72;4.22;;;11.90;99.90;;;;;;4978797;28;20038;-78
2023/08/31 01:52:46;;;;;;;4.15;3.15;;;12.00;99.90;;;;;;4980135;28;20037;-79
2023/08/31 01:55:15;;;;;;;6.65;4.85;;;12.00;99.90;;;;;;4995241;28;20052;-77
2023/08/31 01:57:42;;;;;;;7.75;5.30;;;12.00;99.90;;;;;;4995431;28;20040;-79
2023/08/31 02:00:21;;;;;;;5.57;5.00;;;12.00;99.90;;;;;;4995701;28;20026;-78
2023/08/31 02:02:48;;;;;;;6.55;3.85;;;12.00;99.90;;;;;;4996489;28;20045;-78
2023/08/31 02:05:14;;;;;;;4.90;4.32;;;12.00;99.90;;;;;;4992631;28;20037;-77
2023/08/31 02:07:41;;;;;;;7.22;5.30;;;12.00;99.90;;;;;;4994792;28;20030;-79
2023/08/31 02:10:08;;;;;;;6.13;4.78;;;12.00;99.90;;;;;;4995329;28;20034;-80
2023/08/31 02:12:36;;;;;;;5.38;4.85;;;12.00;99.90;;;;;;5010610;28;20030;-80
2023/08/31 02:15:07;;;;;;;3.63;3.30;;;12.00;99.90;;;;;;5009438;28;20141;-78
2023/08/31 02:17:35;;;;;;;5.00;4.50;;;12.00;99.90;;;;;;4978284;28;20049;-79
2023/08/31 02:20:04;;;;;;;5.03;4.20;;;12.10;99.90;;;;;;5011099;28;20045;-79
2023/08/31 02:22:33;;;;;;;4.65;3.88;;;12.20;99.90;;;;;;4996598;28;20034;-78
2023/08/31 02:25:01;;;;;;;5.53;3.88;;;12.20;99.90;;;;;;4995846;28;20045;-79
2023/08/31 02:27:27;;;;;;;5.32;4.28;;;12.20;99.90;;;;;;5026834;28;20073;-79
2023/08/31 02:29:54;;;;;;;5.20;4.32;;;12.10;99.90;;;;;;4995094;28;20416;-80
2023/08/31 02:32:21;;;;;;;3.85;3.35;;;12.10;99.90;;;;;;5009300;28;20037;-79
2023/08/31 02:34:47;;;;;;;6.30;4.00;;;12.10;99.90;;;;;;4995351;28;20037;-80
2023/08/31 02:37:14;;;;;;;4.50;4.10;;;12.10;99.90;;;;;;4994421;28;20060;-78
2023/08/31 02:39:40;;;;;;;4.97;4.15;;;12.10;99.90;;;;;;5010303;28;20610;-79
2023/08/31 02:42:09;;;;;;;4.80;3.92;;;12.20;99.90;;;;;;4995815;28;20037;-80
2023/08/31 02:44:35;;;;;;;4.82;4.43;;;12.20;99.90;;;;;;5011507;28;20045;-79
2023/08/31 02:47:02;;;;;;;5.55;4.55;;;12.30;99.90;;;;;;4979307;28;20042;-79
2023/08/31 02:49:28;;;;;;;5.10;4.60;;;12.30;99.90;;;;;;4998536;28;20509;-80
2023/08/31 02:51:56;;;;;;;7.35;6.20;;;12.30;99.90;;;;;;4995834;28;20393;-77
2023/08/31 02:54:22;;;;;;;6.00;5.40;;;12.40;99.90;;;;;;5011661;28;20041;-78
2023/08/31 02:56:50;;;;;;;8.45;6.30;;;12.50;99.90;;;;;;5009963;28;20551;-80
2023/08/31 02:59:17;;;;;;;7.35;6.35;;;12.60;99.90;;;;;;5013139;28;20061;-78
2023/08/31 03:01:46;;;;;;;8.55;6.68;;;12.60;99.90;;;;;;4995313;28;20407;-78
2023/08/31 03:04:12;;;;;;;7.13;6.20;;;12.70;99.90;;;;;;5008479;28;20042;-79
2023/08/31 03:06:39;;;;;;;6.30;5.70;;;12.70;99.90;;;;;;5008150;28;20037;-77
2023/08/31 03:09:05;;;;;;;7.75;5.28;;;12.70;99.90;;;;;;5010625;28;20486;-78
2023/08/31 03:11:32;;;;;;;8.23;7.43;;;12.80;99.90;;;;;;4994402;28;20030;-80
2023/08/31 03:13:58;;;;;;;7.57;6.38;;;12.80;99.90;;;;;;5010644;28;20029;-79
2023/08/31 03:16:25;;;;;;;6.28;5.40;;;12.80;99.90;;;;;;4977174;28;20049;-79
2023/08/31 03:18:52;;;;;;;6.40;5.68;;;12.80;99.90;;;;;;4993495;28;20037;-78
2023/08/31 03:21:19;;;;;;;6.45;4.70;;;12.80;99.90;;;;;;4978341;28;20515;-80
2023/08/31 03:23:47;;;;;;;6.53;4.97;;;12.90;99.90;;;;;;4994582;28;20026;-79
2023/08/31 03:26:13;;;;;;;5.63;4.65;;;12.90;99.90;;;;;;4992304;28;20125;-78
2023/08/31 03:28:40;;;;;;;5.57;4.43;;;12.90;99.90;;;;;;4993491;28;20045;-78
2023/08/31 03:31:08;;;;;;;5.85;4.85;;;12.90;99.90;;;;;;5009391;28;20515;-78
2023/08/31 03:33:34;;;;;;;4.75;4.10;;;12.90;99.90;;;;;;5009905;28;20038;-78
2023/08/31 03:36:04;;;;;;;5.38;4.10;;;12.90;99.90;;;;;;4991894;28;20061;-78
2023/08/31 03:38:32;;;;;;;5.45;4.97;;;12.80;99.90;;;;;;4992773;28;20042;-77
2023/08/31 03:41:01;;;;;;;5.15;4.65;;;12.80;99.90;;;;;;5010548;28;20044;-78
2023/08/31 03:43:27;;;;;;;5.90;4.97;;;12.80;99.90;;;;;;5008826;28;20046;-78
2023/08/31 03:45:58;;;;;;;5.95;5.28;;;12.80;99.90;;;;;;5008734;28;21155;-78
2023/08/31 03:48:24;;;;;;;5.50;5.00;;;12.80;99.90;;;;;;5026737;28;20044;-78
2023/08/31 03:50:53;;;;;;;5.75;5.18;;;12.70;99.90;;;;;;5009370;28;20041;-79
2023/08/31 03:53:20;;;;;;;5.10;4.50;;;12.60;99.90;;;;;;5007755;28;20042;-79
2023/08/31 03:55:46;;;;;;;5.55;5.00;;;12.60;99.90;;;;;;5024601;28;20053;-80
2023/08/31 03:58:15;;;;;;;6.15;5.28;;;12.60;99.90;;;;;;4994087;28;20030;-80
2023/08/31 04:00:48;;;;;;;5.32;4.80;;;12.50;99.90;;;;;;4993194;28;20034;-79
2023/08/31 04:03:15;;;;;;;5.93;5.20;;;12.50;99.90;;;;;;5009548;28;20064;-78
2023/08/31 04:05:42;;;;;;;7.35;5.40;;;12.60;99.90;;;;;;5007284;28;20601;-78
2023/08/31 04:08:11;;;;;;;5.22;4.65;;;12.60;99.90;;;;;;5025233;28;20042;-77
2023/08/31 04:10:38;;;;;;;8.23;6.85;;;12.60;99.90;;;;;;4993570;28;20406;-79
2023/08/31 04:13:07;;;;;;;6.85;6.13;;;12.60;99.90;;;;;;5010334;28;20053;-78
2023/08/31 04:15:34;;;;;;;6.97;5.95;;;12.70;99.90;;;;;;4992619;28;20045;-79
2023/08/31 04:18:00;;;;;;;6.28;5.38;;;12.70;99.90;;;;;;4976360;28;20049;-77
2023/08/31 04:20:27;;;;;;;7.45;6.38;;;12.70;99.90;;;;;;4976576;28;21446;-78
2023/08/31 04:22:53;;;;;;;7.43;5.78;;;12.70;99.90;;;;;;5026754;28;20045;-79
2023/08/31 04:25:20;;;;;;;6.43;5.68;;;12.70;99.90;;;;;;5009165;28;20037;-79
2023/08/31 04:27:48;;;;;;;7.72;7.03;;;12.70;99.90;;;;;;4992439;28;20037;-78
2023/08/31 04:30:15;;;;;;;5.90;5.40;;;12.70;99.90;;;;;;4976465;28;20070;-80
2023/08/31 04:32:42;;;;;;;6.28;5.53;;;12.70;99.90;;;;;;4993026;28;20034;-79
2023/08/31 04:35:09;;;;;;;6.25;5.65;;;12.70;99.90;;;;;;5024026;28;20042;-77
2023/08/31 04:37:35;;;;;;;7.35;6.05;;;12.70;99.90;;;;;;5009229;28;20504;-79
2023/08/31 04:40:04;;;;;;;7.72;6.93;;;12.70;99.90;;;;;;4992948;28;20036;-80
2023/08/31 04:42:30;;;;;;;6.47;5.65;;;12.80;99.90;;;;;;4993567;28;20603;-78
2023/08/31 04:44:56;;;;;;;6.72;6.00;;;12.80;99.90;;;;;;4994306;28;20966;-79
2023/08/31 04:47:23;;;;;;;7.38;6.63;;;12.80;99.90;;;;;;5025146;28;20046;-80
2023/08/31 04:49:50;;;;;;;7.47;6.47;;;12.80;99.90;;;;;;4994680;28;20040;-80
2023/08/31 04:52:16;;;;;;;7.03;5.30;;;12.90;99.90;;;;;;5026984;28;20473;-79
2023/08/31 04:54:43;;;;;;;7.07;5.38;;;12.90;99.90;;;;;;4992534;28;21347;-78
2023/08/31 04:57:10;;;;;;;8.05;6.72;;;12.90;99.90;;;;;;4976407;28;20045;-78
2023/08/31 04:59:36;;;;;;;6.68;5.88;;;12.90;99.90;;;;;;4992807;28;20374;-79
2023/08/31 05:02:03;;;;;;;8.00;7.20;;;13.00;99.90;;;;;;4994877;28;20030;-79
2023/08/31 05:04:30;;;;;;;6.93;5.90;;;13.00;99.90;;;;;;5025530;28;20604;-81
2023/08/31 05:06:56;;;;;;;7.43;6.15;;;13.00;99.90;;;;;;5008016;28;20534;-81
2023/08/31 05:09:25;;;;;;;7.78;6.55;;;13.00;99.90;;;;;;4992330;28;20049;-78
2023/08/31 05:11:51;;;;;;;7.63;6.47;;;12.90;99.90;;;;;;4992606;28;20041;-80
2023/08/31 05:14:18;;;;;;;7.40;5.97;;;12.90;99.90;;;;;;4992484;28;20045;-75
2023/08/31 05:16:44;;;;;;;6.50;5.88;;;13.00;99.90;;;;;;4995459;28;20030;-75
2023/08/31 05:19:11;;;;;;;7.07;5.65;;;13.00;99.90;;;;;;4978820;28;20460;-75
2023/08/31 05:21:37;;;;;;;7.90;5.93;;;12.90;99.90;;;;;;4998105;28;20045;-74
2023/08/31 05:24:05;;;;;;;9.77;6.80;;;13.00;99.90;;;;;;4979726;28;20056;-75
2023/08/31 05:26:31;;;;;;;9.45;8.43;;;12.90;99.90;;;;;;5011890;28;20045;-76
2023/08/31 05:28:58;;;;;;;8.25;7.07;;;13.00;99.90;;;;;;4993988;28;20416;-76
2023/08/31 05:31:25;;;;;;;8.57;5.93;;;13.00;99.90;;;;;;5012326;28;20444;-75
2023/08/31 05:33:54;;;;;;;8.55;6.85;;;13.00;99.90;;;;;;4997812;28;20030;-77
2023/08/31 05:36:21;;;;;;;9.25;6.00;;;13.10;99.90;;;;;;4996163;28;20061;-77
2023/08/31 05:38:47;;;;;;;10.25;8.30;;;13.10;99.90;;;;;;4995381;28;20049;-75
2023/08/31 05:41:14;;;;;;;10.88;9.77;;;13.10;99.90;;;;;;4997756;28;20034;-76
2023/08/31 05:43:40;;;;;;;10.57;8.18;;;13.10;99.90;;;;;;5026947;28;20468;-75
2023/08/31 05:46:08;;;;;;;7.25;6.55;;;13.20;99.90;;;;;;4995360;28;20045;-74
2023/08/31 05:48:36;;;;;;;9.48;6.55;;;13.20;99.90;;;;;;4995539;28;20037;-74
2023/08/31 05:51:03;;;;;;;11.02;9.88;;;13.20;99.90;;;;;;5012333;28;20045;-74
2023/08/31 05:53:30;;;;;;;8.70;7.72;;;13.20;99.90;;;;;;4982951;28;20136;-74
2023/08/31 05:56:03;;;;;;;11.77;10.25;;;13.20;99.90;;;;;;4993029;28;20046;-74
2023/08/31 05:58:34;;;;;;;9.60;8.68;;;13.20;99.90;;;;;;5027950;28;20540;-75
2023/08/31 06:01:03;;;;;;;11.70;10.43;;;13.20;99.90;;;;;;4997346;28;20038;-74
2023/08/31 06:03:30;;;;;;;9.52;8.63;;;13.20;99.90;;;;;;4995132;28;20049;-76
2023/08/31 06:05:57;;;;;;;12.63;10.95;;;13.30;99.90;;;;;;5010568;28;20038;-74
2023/08/31 06:08:24;;;;;;;10.02;9.02;;;13.30;99.90;;;;;;4996675;28;20033;-76
2023/08/31 06:10:51;;;;;;;12.57;10.93;;;13.30;99.90;;;;;;4997006;28;20029;-75
2023/08/31 06:13:17;;;;;;;17.02;15.10;;;13.30;99.90;;;;;;4995037;28;20049;-77
2023/08/31 06:15:44;;;;;;;18.73;13.73;;;13.30;99.90;;;;;;4993304;28;20041;-76
2023/08/31 06:18:11;;;;;;;18.00;16.20;;;13.30;99.90;;;;;;4995003;28;20030;-76
2023/08/31 06:20:37;;;;;;;14.95;13.45;;;13.30;99.90;;;;;;5011440;28;20061;-76
2023/08/31 06:23:04;;;;;;;18.33;16.42;;;13.30;99.90;;;;;;4978520;28;20045;-76
2023/08/31 06:25:30;;;;;;;15.60;13.98;;;13.30;99.90;;;;;;4994444;28;20311;-76
2023/08/31 06:27:57;;;;;;;20.55;18.35;;;13.30;99.90;;;;;;4993201;28;20599;-76
2023/08/31 06:30:24;;;;;;;15.68;14.25;;;13.30;99.90;;;;;;4977605;28;20595;-76
2023/08/31 06:32:50;;;;;;;18.15;16.05;;;13.40;99.90;;;;;;4978686;28;20666;-76
2023/08/31 06:35:17;;;;;;;17.17;14.38;;;13.50;99.90;;;;;;4994462;28;20041;-76
2023/08/31 06:37:45;;;;;;;17.83;15.95;;;13.60;99.90;;;;;;4994297;28;20034;-76
2023/08/31 06:40:12;;;;;;;16.52;14.82;;;13.60;99.90;;;;;;4993763;28;20489;-76
2023/08/31 06:42:39;;;;;;;17.95;16.05;;;13.70;99.90;;;;;;5010101;28;20057;-76
2023/08/31 06:45:07;;;;;;;21.95;19.52;;;13.80;99.90;;;;;;5010007;28;20030;-77
2023/08/31 06:47:34;;;;;;;18.40;16.60;;;14.20;99.90;;;;;;5027374;28;20033;-76
2023/08/31 06:50:00;;;;;;;22.45;19.73;;;14.50;99.90;;;;;;5028800;28;20042;-74
2023/08/31 06:52:27;;;;;;;19.50;17.30;;;14.60;99.90;;;;;;4978834;28;20050;-73
2023/08/31 06:54:58;;;;;;;13.27;11.88;;;14.60;99.90;;;;;;5027109;28;20444;-74
2023/08/31 06:57:25;;;;;;;18.90;17.15;;;14.50;99.90;;;;;;4993262;28;20045;-74
2023/08/31 06:59:51;;;;;;;18.52;16.70;;;14.40;99.90;;;;;;5008686;28;20462;-73
2023/08/31 07:02:24;;;;;;;13.77;12.38;;;14.30;99.90;;;;;;4995641;28;20366;-73
2023/08/31 07:04:52;;;;;;;14.10;12.65;;;14.20;99.90;;;;;;4993768;28;20038;-74
2023/08/31 07:07:19;;;;;;;15.23;13.40;;;14.10;99.90;;;;;;4992882;28;20044;-74
2023/08/31 07:09:47;;;;;;;15.75;14.15;;;14.10;99.90;;;;;;5009954;28;20038;-74
2023/08/31 07:12:13;;;;;;;14.57;13.07;;;14.00;99.90;;;;;;4993298;28;20052;-74
2023/08/31 07:14:40;;;;;;;15.63;14.05;;;14.10;99.90;;;;;;5010478;28;20049;-74
2023/08/31 07:17:06;;;;;;;17.38;15.77;;;14.10;99.90;;;;;;4994616;28;20045;-75
2023/08/31 07:19:36;;;;;;;17.63;15.75;;;14.20;99.90;;;;;;5026409;28;20044;-75
2023/08/31 07:22:04;;;;;;;18.38;16.33;;;14.30;99.90;;;;;;4975673;28;20050;-75
2023/08/31 07:24:30;;;;;;;23.15;20.65;;;14.30;99.90;;;;;;4993376;28;20524;-75
2023/08/31 07:26:57;;;;;;;19.83;17.83;;;14.30;99.90;;;;;;5007269;28;20065;-75
2023/08/31 07:29:24;;;;;;;16.88;15.23;;;14.30;99.90;;;;;;4992557;28;20374;-75
2023/08/31 07:31:51;;;;;;;23.27;18.42;;;14.30;99.90;;;;;;4993711;28;20034;-75
2023/08/31 07:34:17;;;;;;;18.90;17.10;;;14.40;99.90;;;;;;5027368;28;20045;-74
2023/08/31 07:36:44;;;;;;;16.35;14.52;;;14.40;99.90;;;;;;4994755;28;20060;-74
2023/08/31 07:39:10;;;;;;;19.73;17.73;;;14.40;99.90;;;;;;4993627;28;20038;-75
2023/08/31 07:41:37;;;;;;;17.00;15.30;;;14.40;99.90;;;;;;4992936;28;20049;-75
2023/08/31 07:44:04;;;;;;;14.55;13.23;;;14.30;99.90;;;;;;5009778;28;20042;-75
2023/08/31 07:46:30;;;;;;;17.45;15.65;;;14.30;99.90;;;;;;4991088;28;20057;-75
2023/08/31 07:48:57;;;;;;;16.50;13.60;;;14.40;99.90;;;;;;5008886;28;20401;-75
2023/08/31 07:51:25;;;;;;;16.00;14.40;;;14.60;99.90;;;;;;4976934;28;20042;-75
2023/08/31 07:53:52;;;;;;;14.98;12.57;;;15.00;99.90;;;;;;4991871;28;20046;-75
2023/08/31 07:56:18;;;;;;;17.35;15.27;;;15.10;99.90;;;;;;5009383;28;20042;-75
2023/08/31 07:58:45;;;;;;;14.90;13.30;;;15.20;99.90;;;;;;4976183;28;20045;-75
2023/08/31 08:01:11;;;;;;;14.95;13.50;;;15.20;99.90;;;;;;4977357;28;20042;-75
2023/08/31 08:03:38;;;;;;;14.27;12.50;;;15.30;99.90;;;;;;5010360;28;20030;-75
2023/08/31 08:06:04;;;;;;;16.13;14.35;;;15.30;99.90;;;;;;4991898;28;20041;-75
2023/08/31 08:08:31;;;;;;;14.85;12.57;;;15.30;99.90;;;;;;4992323;28;20520;-74
2023/08/31 08:10:57;;;;;;;12.40;11.00;;;15.30;99.90;;;;;;4994323;28;20405;-74
2023/08/31 08:13:24;;;;;;;14.55;11.75;;;15.30;99.90;;;;;;4977463;28;20049;-75
2023/08/31 08:15:50;;;;;;;11.07;9.85;;;15.30;99.90;;;;;;4991911;28;20061;-75
2023/08/31 08:18:17;;;;;;;13.07;10.27;;;15.30;99.90;;;;;;4994347;28;20050;-75
2023/08/31 08:20:46;;;;;;;12.80;11.27;;;15.30;99.90;;;;;;5009283;28;20373;-74
2023/08/31 08:23:13;;;;;;;11.25;9.95;;;15.20;99.90;;;;;;5009160;28;20026;-74
2023/08/31 08:25:40;;;;;;;9.95;8.95;;;15.20;99.90;;;;;;4975452;28;20405;-75
2023/08/31 08:28:06;;;;;;;9.80;8.80;;;15.20;99.90;;;;;;4992456;28;20040;-75
2023/08/31 08:30:32;;;;;;;12.48;11.15;;;15.20;99.90;;;;;;4992566;28;20045;-75
2023/08/31 08:32:59;;;;;;;14.02;11.68;;;15.30;99.90;;;;;;5025692;28;20025;-74
2023/08/31 08:35:26;;;;;;;13.90;11.73;;;15.40;99.90;;;;;;4991763;28;20034;-75
2023/08/31 08:37:53;;;;;;;12.30;10.93;;;15.50;99.90;;;;;;5009015;28;20042;-75
2023/08/31 08:40:19;;;;;;;13.88;12.15;;;15.50;99.90;;;;;;5009123;28;20038;-75
2023/08/31 08:42:47;;;;;;;16.83;13.48;;;15.70;99.90;;;;;;4993952;28;20022;-75
2023/08/31 08:45:17;;;;;;;18.42;14.32;;;16.00;99.90;;;;;;4992511;28;20065;-75
2023/08/31 08:47:46;;;;;;;16.40;14.25;;;16.30;99.90;;;;;;4961081;28;20050;-75
2023/08/31 08:50:13;;;;;;;18.27;15.88;;;16.40;99.90;;;;;;5010162;28;20049;-74
2023/08/31 08:52:40;;;;;;;12.77;10.55;;;16.50;99.90;;;;;;5011051;28;20404;-75
2023/08/31 08:55:08;;;;;;;12.70;11.02;;;16.40;99.90;;;;;;5012599;28;20038;-75
2023/08/31 08:57:35;;;;;;;11.07;9.88;;;16.50;99.90;;;;;;5011183;28;20060;-75
2023/08/31 09:00:03;;;;;;;12.23;9.50;;;16.50;99.90;;;;;;5029044;28;20038;-75
2023/08/31 09:02:29;;;;;;;12.15;10.32;;;16.60;99.90;;;;;;4996797;28;20022;-75
2023/08/31 09:04:56;;;;;;;10.20;9.15;;;16.70;99.90;;;;;;4996100;28;20061;-75
2023/08/31 09:07:24;;;;;;;13.40;11.35;;;16.80;99.90;;;;;;4978901;28;20385;-75
2023/08/31 09:09:52;;;;;;;11.70;10.50;;;17.00;99.90;;;;;;5029816;28;20037;-75
2023/08/31 09:12:20;;;;;;;11.48;10.25;;;17.20;99.90;;;;;;5010893;28;20030;-75
2023/08/31 09:15:01;;;;;;;11.20;9.45;;;17.20;99.90;;;;;;5013741;28;20392;-75
2023/08/31 09:17:44;;;;;;;12.18;10.35;;;17.10;99.90;;;;;;4995705;28;20405;-75
2023/08/31 09:20:11;;;;;;;8.40;6.88;;;17.10;99.90;;;;;;4995587;28;22398;-75
2023/08/31 09:22:44;;;;;;;9.60;8.38;;;17.20;99.90;;;;;;5027952;28;20037;-75
2023/08/31 09:25:11;;;;;;;11.05;9.30;;;17.40;99.90;;;;;;4979941;28;20045;-75
2023/08/31 09:27:38;;;;;;;9.15;7.57;;;17.60;99.90;;;;;;4979320;28;20025;-76
2023/08/31 09:30:06;;;;;;;10.55;8.95;;;17.80;99.90;;;;;;4995609;28;20100;-75
2023/08/31 09:32:33;;;;;;;10.07;8.63;;;18.00;99.90;;;;;;5029148;28;20034;-75
2023/08/31 09:35:02;;;;;;;9.48;8.57;;;18.20;99.90;;;;;;4980070;28;20403;-75
2023/08/31 09:37:29;;;;;;;9.55;7.03;;;18.50;99.90;;;;;;4977808;28;20725;-76
2023/08/31 09:39:55;;;;;;;9.88;7.80;;;18.70;99.90;;;;;;5029419;28;20033;-75
2023/08/31 09:42:22;;;;;;;7.07;5.93;;;18.70;99.90;;;;;;5028625;28;20037;-76
2023/08/31 09:44:49;;;;;;;6.30;5.55;;;18.70;99.90;;;;;;5012164;28;20038;-75
2023/08/31 09:47:19;;;;;;;6.15;4.35;;;18.90;99.90;;;;;;4995925;28;20042;-76
2023/08/31 09:49:46;;;;;;;5.40;3.58;;;18.80;99.90;;;;;;5012303;28;20493;-75
2023/08/31 09:52:14;;;;;;;4.28;3.45;;;18.70;99.90;;;;;;4996226;28;20038;-75
2023/08/31 09:54:42;;;;;;;4.72;3.25;;;18.70;99.90;;;;;;5026894;28;20041;-75
2023/08/31 09:57:11;;;;;;;4.65;3.15;;;18.80;99.90;;;;;;5010965;28;20030;-75
2023/08/31 09:59:39;;;;;;;3.47;2.53;;;18.80;99.90;;;;;;4978698;28;20033;-76
2023/08/31 10:02:07;;;;;;;4.28;2.40;;;18.70;99.90;;;;;;5012034;28;20081;-75
2023/08/31 10:04:36;;;;;;;7.95;2.90;;;18.90;99.90;;;;;;4979344;28;20061;-75
2023/08/31 10:07:05;;;;;;;4.32;2.83;;;19.20;99.90;;;;;;4994461;28;20060;-85
2023/08/31 10:09:32;;;;;;;5.47;3.42;;;19.30;99.90;;;;;;5011597;28;20034;-75
2023/08/31 10:11:59;;;;;;;6.15;3.40;;;19.20;99.90;;;;;;5026442;28;20041;-76
2023/08/31 10:14:26;;;;;;;4.55;4.10;;;19.00;99.90;;;;;;4995285;28;20041;-74
2023/08/31 10:16:54;;;;;;;3.80;2.88;;;18.60;99.90;;;;;;4994117;28;20037;-74
2023/08/31 10:19:20;;;;;;;5.65;4.30;;;18.20;99.90;;;;;;4996773;28;20037;-74
2023/08/31 10:21:47;;;;;;;3.35;3.03;;;17.90;99.90;;;;;;4978550;28;20126;-74
2023/08/31 10:24:13;;;;;;;4.32;3.45;;;17.80;99.90;;;;;;4994932;28;20401;-74
2023/08/31 10:26:40;;;;;;;4.30;2.75;;;17.60;99.90;;;;;;4980304;28;20056;-74
2023/08/31 10:29:25;;;;;;;4.00;2.47;;;17.50;99.90;;;;;;4992918;28;20038;-74
2023/08/31 10:31:52;;;;;;;3.55;2.35;;;17.30;99.90;;;;;;4996115;28;20372;-74
2023/08/31 10:34:36;;;;;;;3.17;2.33;;;17.20;99.90;;;;;;5012804;28;20489;-82
2023/08/31 10:37:19;;;;;;;4.60;3.53;;;17.20;99.90;;;;;;5010413;28;20068;-75
2023/08/31 10:39:45;;;;;;;7.18;2.80;;;17.50;99.90;;;;;;4995563;28;20428;-74
2023/08/31 10:42:12;;;;;;;3.55;3.03;;;18.10;99.90;;;;;;5011102;28;20408;-75
2023/08/31 10:44:42;;;;;;;3.47;2.72;;;18.50;99.90;;;;;;5011435;28;20038;-75
2023/08/31 10:47:09;;;;;;;3.75;2.90;;;18.80;99.90;;;;;;4995223;28;20904;-75
2023/08/31 10:49:37;;;;;;;3.90;2.00;;;19.30;99.90;;;;;;5026814;28;20045;-75
2023/08/31 10:52:19;;;;;;;4.63;1.95;;;19.80;99.90;;;;;;4995381;28;20469;-76
2023/08/31 10:54:47;;;;;;;2.67;1.52;;;20.40;99.90;;;;;;5011322;28;20121;-77
2023/08/31 10:57:15;;;;;;;2.83;1.00;;;20.90;99.90;;;;;;5025893;28;20049;-76
2023/08/31 10:59:51;;;;;;;1.45;0.50;;;21.30;99.90;;;;;;4977960;28;20493;-75
2023/08/31 11:02:33;;;;;;;3.10;0.50;;;21.60;99.90;;;;;;4994223;28;20034;-76
2023/08/31 11:05:14;;;;;;;2.55;0.70;;;22.00;99.90;;;;;;4993794;28;20045;-75
2023/08/31 11:07:48;;;;;;;3.20;0.60;;;22.30;99.90;;;;;;4995895;28;20122;-76
2023/08/31 11:10:20;;;;;;;3.80;0.47;;;22.50;99.90;;;;;;4977683;28;20044;-92
2023/08/31 11:12:48;;;;;;;;;;;22.90;99.90;;;;;;5015224;28;20480;-92
2023/08/31 11:15:17;;;;;;;2.35;0.50;;;23.20;99.90;;;;;;4977904;28;19913;-77
2023/08/31 11:17:44;;;;;;;2.20;0.50;;;23.50;99.90;;;;;;4993695;28;20045;-76
2023/08/31 11:20:16;;;;;;;2.13;0.40;;;23.80;99.90;;;;;;4995225;28;20038;-86
2023/08/31 11:22:43;;;;;;;;;;;24.20;99.90;;;;;;5012385;28;20037;-93
2023/08/31 11:25:15;;;;;;;1.25;0.50;;;24.50;99.90;;;;;;4982510;28;19949;-90
2023/08/31 11:27:52;;;;;;;6.15;1.25;;;25.00;99.90;;;;;;4978560;28;20046;-83
2023/08/31 11:30:20;;;;;;;3.22;0.65;;;25.20;99.90;;;;;;5025925;28;20026;-78
2023/08/31 11:32:49;;;;;;;2.72;0.45;;;25.20;99.90;;;;;;5008684;28;20045;-76
2023/08/31 11:35:16;;;;;;;2.38;0.30;;;25.50;99.90;;;;;;5010138;28;20057;-78
2023/08/31 11:37:44;;;;;;;1.55;0.40;;;25.80;99.90;;;;;;5009882;28;20049;-78
2023/08/31 11:40:15;;;;;;;2.45;0.70;;;25.80;99.90;;;;;;5012628;28;20025;-95
2023/08/31 11:42:42;;;;;;;2.45;0.57;;;25.40;99.90;;;;;;5011674;28;20049;-77
2023/08/31 11:45:12;;;;;;;1.40;0.50;;;24.40;99.90;;;;;;5025917;28;20038;-76
2023/08/31 11:47:40;;;;;;;1.83;0.30;;;23.60;99.90;;;;;;4994285;28;20052;-75
2023/08/31 11:50:07;;;;;;;1.70;0.38;;;22.90;99.90;;;;;;4992520;28;20038;-76
2023/08/31 11:52:34;;;;;;;1.25;0.50;;;22.90;99.90;;;;;;5024098;28;20064;-74
2023/08/31 11:55:00;;;;;;;1.88;0.65;;;23.40;99.90;;;;;;4992621;28;20040;-75
2023/08/31 11:57:30;;;;;;;2.88;0.40;;;24.10;99.90;;;;;;4993339;28;20042;-75
2023/08/31 11:59:58;;;;;;;1.90;0.30;;;24.60;99.90;;;;;;4977962;28;20385;-75
2023/08/31 12:02:24;;;;;;;0.90;0.30;;;25.00;99.90;;;;;;5025020;28;20026;-75
2023/08/31 12:04:51;;;;;;;1.10;0.30;;;25.00;99.90;;;;;;4993619;28;20036;-76
2023/08/31 12:07:18;;;;;;;1.08;0.30;;;25.10;99.90;;;;;;4992948;28;20378;-77
2023/08/31 12:09:45;;;;;;;2.28;0.38;;;25.00;99.90;;;;;;4977121;28;20033;-77
2023/08/31 12:12:17;;;;;;;1.45;0.30;;;25.40;99.90;;;;;;4993663;28;20042;-77
2023/08/31 12:14:44;;;;;;;3.88;0.30;;;26.00;99.90;;;;;;4993113;28;20540;-79
2023/08/31 12:17:10;;;;;;;1.40;0.22;;;26.20;99.90;;;;;;4993175;28;20525;-79
2023/08/31 12:19:41;;;;;;;0.47;0.20;;;25.90;99.90;;;;;;4992941;28;20033;-79
2023/08/31 12:22:12;;;;;;;1.42;0.30;;;25.10;99.90;;;;;;4976372;28;20049;-79
2023/08/31 12:24:42;;;;;;;0.52;0.30;;;24.70;99.90;;;;;;5010770;28;20045;-79
2023/08/31 12:27:09;;;;;;;1.23;0.30;;;25.20;99.90;;;;;;4998748;28;20044;-79
2023/08/31 12:29:36;;;;;;;0.77;0.30;;;25.90;99.90;;;;;;5014616;28;20507;-79
2023/08/31 12:32:03;;;;;;;1.27;0.30;;;25.80;98.60;;;;;;5030977;28;20044;-79
2023/08/31 12:34:32;;;;;;;2.20;0.68;;;25.70;98.60;;;;;;5014448;28;20053;-81
2023/08/31 12:37:00;;;;;;;1.25;0.35;;;25.50;98.20;;;;;;4978661;28;20037;-79
2023/08/31 12:39:27;;;;;;;1.05;0.25;;;25.10;97.30;;;;;;4980951;28;20030;-81
2023/08/31 12:41:54;;;;;;;0.50;0.20;;;25.00;97.90;;;;;;4997356;28;20045;-82
2023/08/31 12:44:21;;;;;;;0.75;0.28;;;25.00;98.20;;;;;;4980962;28;20492;-81
2023/08/31 12:46:48;;;;;;;0.95;0.30;;;25.00;97.70;;;;;;4979424;28;20439;-84
2023/08/31 12:49:15;;;;;;;3.80;0.70;;;25.60;97.70;;;;;;5013178;28;20045;-85